createdAt,value
2022-08-03T00:00:21.302Z,7.88
2022-08-03T00:02:48.040Z,7.07
2022-08-03T00:05:14.688Z,11.75
2022-08-03T00:07:41.265Z,10.63
2022-08-03T00:10:08.586Z,8.40
2022-08-03T00:12:36.406Z,9.02
2022-08-03T00:15:03.968Z,9.40
2022-08-03T00:17:52.431Z,9.40
2022-08-03T00:20:23.545Z,6.75
2022-08-03T00:22:50.411Z,6.67
2022-08-03T00:25:17.862Z,6.05
2022-08-03T00:27:44.722Z,7.68
2022-08-03T00:30:11.469Z,9.25
2022-08-03T00:32:38.884Z,7.35
2022-08-03T00:35:20.437Z,6.87
2022-08-03T00:37:59.082Z,6.05
2022-08-03T00:40:26.145Z,10.07
2022-08-03T00:42:53.694Z,9.95
2022-08-03T00:45:25.921Z,11.68
2022-08-03T00:47:53.643Z,14.43
2022-08-03T00:50:23.004Z,7.25
2022-08-03T00:52:51.820Z,7.70
2022-08-03T00:55:18.678Z,12.77
2022-08-03T00:57:45.714Z,9.82
2022-08-03T01:00:14.651Z,9.43
2022-08-03T01:02:41.754Z,8.15
2022-08-03T01:05:09.229Z,9.68
2022-08-03T01:08:03.646Z,7.75
2022-08-03T01:10:50.294Z,9.65
2022-08-03T01:14:02.014Z,9.97
2022-08-03T01:16:11.261Z,11.65
2022-08-03T01:19:04.084Z,9.98
2022-08-03T01:21:56.366Z,9.68
2022-08-03T01:24:42.771Z,10.07
2022-08-03T01:27:15.829Z,9.67
2022-08-03T01:29:56.467Z,11.13
2022-08-03T01:32:54.551Z,11.48
2022-08-03T01:35:35.438Z,9.77
2022-08-03T01:38:10.764Z,10.40
2022-08-03T01:40:41.106Z,11.57
2022-08-03T01:43:11.158Z,8.35
2022-08-03T01:45:38.569Z,10.15
2022-08-03T01:48:07.277Z,14.82
2022-08-03T01:50:34.803Z,10.75
2022-08-03T01:53:02.322Z,8.43
2022-08-03T01:55:32.113Z,11.95
2022-08-03T01:58:05.873Z,8.65
2022-08-03T02:00:36.839Z,10.07
2022-08-03T02:03:06.756Z,13.75
2022-08-03T02:05:34.444Z,10.23
2022-08-03T02:08:03.497Z,14.80
2022-08-03T02:10:34.542Z,10.35
2022-08-03T02:13:02.999Z,9.60
2022-08-03T02:15:30.768Z,9.75
2022-08-03T02:17:58.595Z,10.10
2022-08-03T02:20:26.419Z,11.85
2022-08-03T02:22:53.176Z,11.55
2022-08-03T02:25:20.171Z,12.07
2022-08-03T02:27:56.003Z,8.82
2022-08-03T02:30:29.604Z,11.20
2022-08-03T02:32:58.488Z,13.25
2022-08-03T02:35:28.309Z,11.40
2022-08-03T02:38:00.946Z,9.45
2022-08-03T02:40:29.238Z,10.52
2022-08-03T02:42:59.460Z,10.60
2022-08-03T02:45:28.063Z,12.27
2022-08-03T02:47:58.207Z,10.98
2022-08-03T02:50:26.208Z,16.00
2022-08-03T02:52:55.318Z,11.90
2022-08-03T02:55:23.680Z,11.53
2022-08-03T02:57:51.142Z,12.07
2022-08-03T03:00:27.077Z,14.82
2022-08-03T03:02:57.875Z,7.53
2022-08-03T03:05:53.026Z,12.60
2022-08-03T03:08:17.682Z,11.47
2022-08-03T03:10:46.191Z,11.95
2022-08-03T03:13:14.820Z,10.75
2022-08-03T03:15:42.450Z,11.55
2022-08-03T03:18:10.372Z,12.30
2022-08-03T03:20:38.580Z,10.17
2022-08-03T03:23:06.162Z,11.93
2022-08-03T03:25:33.907Z,12.30
2022-08-03T03:28:01.477Z,9.02
2022-08-03T03:30:30.015Z,10.75
2022-08-03T03:32:58.668Z,10.90
2022-08-03T03:35:27.162Z,12.30
2022-08-03T03:37:53.935Z,14.18
2022-08-03T03:40:21.895Z,13.18
2022-08-03T03:42:49.373Z,11.57
2022-08-03T03:45:16.255Z,11.13
2022-08-03T03:47:42.875Z,9.75
2022-08-03T03:50:11.032Z,12.57
2022-08-03T03:52:37.947Z,12.05
2022-08-03T03:55:04.963Z,12.25
2022-08-03T03:57:31.487Z,15.30
2022-08-03T03:59:58.088Z,9.35
2022-08-03T04:02:25.005Z,14.30
2022-08-03T04:05:10.195Z,13.90
2022-08-03T04:08:05.506Z,11.05
2022-08-03T04:10:53.850Z,12.43
2022-08-03T04:13:22.005Z,11.02
2022-08-03T04:15:49.657Z,13.40
2022-08-03T04:18:18.962Z,14.88
2022-08-03T04:20:48.877Z,11.95
2022-08-03T04:23:18.550Z,11.10
2022-08-03T04:25:46.773Z,14.05
2022-08-03T04:28:30.871Z,12.35
2022-08-03T04:31:00.046Z,10.02
2022-08-03T04:33:29.724Z,11.00
2022-08-03T04:36:02.526Z,15.33
2022-08-03T04:38:32.966Z,17.27
2022-08-03T04:41:00.538Z,11.07
2022-08-03T04:43:28.321Z,14.32
2022-08-03T04:45:55.739Z,14.63
2022-08-03T04:48:22.697Z,12.67
2022-08-03T04:50:49.383Z,15.50
2022-08-03T04:53:16.765Z,12.43
2022-08-03T04:55:43.601Z,10.77
2022-08-03T04:58:10.461Z,13.75
2022-08-03T05:00:37.035Z,10.00
2022-08-03T05:03:03.722Z,14.15
2022-08-03T05:05:50.077Z,14.15
2022-08-03T05:08:20.346Z,11.57
2022-08-03T05:10:54.346Z,9.45
2022-08-03T05:13:21.022Z,16.13
2022-08-03T05:15:47.725Z,13.45
2022-08-03T05:18:14.554Z,12.95
2022-08-03T05:20:41.527Z,10.85
2022-08-03T05:23:08.197Z,12.27
2022-08-03T05:25:34.929Z,12.37
2022-08-03T05:28:01.529Z,12.00
2022-08-03T05:30:34.161Z,12.85
2022-08-03T05:33:03.076Z,13.75
2022-08-03T05:36:01.182Z,11.10
2022-08-03T05:38:20.856Z,11.83
2022-08-03T05:40:57.529Z,12.52
2022-08-03T05:43:41.263Z,11.02
2022-08-03T05:46:12.994Z,13.88
2022-08-03T05:48:40.153Z,13.25
2022-08-03T05:51:11.409Z,12.50
2022-08-03T05:53:39.238Z,13.60
2022-08-03T05:56:13.997Z,12.38
2022-08-03T05:58:43.466Z,13.55
2022-08-03T06:01:10.175Z,10.90
2022-08-03T06:03:36.754Z,14.13
2022-08-03T06:06:03.488Z,13.57
2022-08-03T06:08:30.031Z,12.90
2022-08-03T06:10:56.615Z,15.38
2022-08-03T06:13:23.202Z,16.77
2022-08-03T06:15:49.772Z,11.90
2022-08-03T06:18:16.386Z,13.85
2022-08-03T06:20:42.967Z,13.85
2022-08-03T06:23:16.140Z,14.05
2022-08-03T06:25:45.057Z,13.80
2022-08-03T06:31:03.089Z,13.20
2022-08-03T06:34:30.460Z,11.30
2022-08-03T06:36:16.324Z,11.93
2022-08-03T06:38:42.962Z,12.82
2022-08-03T06:41:09.498Z,12.47
2022-08-03T06:43:37.980Z,13.05
2022-08-03T06:46:24.693Z,15.80
2022-08-03T06:48:53.272Z,12.93
2022-08-03T06:51:19.980Z,11.23
2022-08-03T06:53:46.585Z,13.17
2022-08-03T06:56:13.196Z,18.00
2022-08-03T06:58:39.809Z,11.52
2022-08-03T07:01:06.425Z,15.65
2022-08-03T07:03:33.115Z,12.18
2022-08-03T07:05:59.976Z,13.77
2022-08-03T07:08:34.210Z,16.40
2022-08-03T07:11:01.460Z,12.15
2022-08-03T07:13:28.147Z,12.05
2022-08-03T07:15:56.384Z,10.00
2022-08-03T07:18:29.343Z,12.00
2022-08-03T07:20:56.842Z,13.52
2022-08-03T07:23:23.741Z,14.88
2022-08-03T07:25:50.998Z,18.80
2022-08-03T07:28:17.708Z,11.27
2022-08-03T07:30:44.333Z,15.30
2022-08-03T07:33:11.134Z,12.02
2022-08-03T07:35:37.829Z,15.18
2022-08-03T07:38:04.374Z,16.42
2022-08-03T07:40:31.908Z,14.45
2022-08-03T07:42:59.989Z,14.70
2022-08-03T07:45:26.768Z,12.10
2022-08-03T07:47:55.735Z,13.95
2022-08-03T07:50:22.884Z,11.30
2022-08-03T07:52:50.755Z,14.27
2022-08-03T07:55:25.522Z,13.43
2022-08-03T07:58:03.995Z,12.95
2022-08-03T08:00:31.044Z,14.93
2022-08-03T08:02:57.663Z,9.95
2022-08-03T08:05:24.513Z,14.43
2022-08-03T08:07:51.883Z,13.57
2022-08-03T08:10:18.815Z,12.10
2022-08-03T08:12:45.542Z,15.57
2022-08-03T08:15:12.190Z,11.13
2022-08-03T08:18:01.012Z,11.73
2022-08-03T08:20:31.789Z,12.20
2022-08-03T08:23:06.934Z,13.00
2022-08-03T08:25:51.817Z,12.43
2022-08-03T08:28:22.392Z,11.98
2022-08-03T08:30:59.699Z,13.55
2022-08-03T08:33:37.331Z,12.23
2022-08-03T08:36:15.389Z,14.73
2022-08-03T08:38:44.627Z,9.80
2022-08-03T08:41:12.134Z,11.65
2022-08-03T08:43:38.952Z,10.25
2022-08-03T08:46:08.042Z,12.50
2022-08-03T08:48:36.271Z,15.05
2022-08-03T08:51:03.438Z,11.40
2022-08-03T08:53:32.825Z,12.95
2022-08-03T08:56:01.193Z,12.88
2022-08-03T08:58:37.392Z,11.97
2022-08-03T09:01:05.489Z,10.00
2022-08-03T09:03:34.382Z,11.85
2022-08-03T09:06:02.286Z,13.73
2022-08-03T09:08:30.414Z,11.68
2022-08-03T09:10:57.026Z,10.80
2022-08-03T09:13:23.684Z,13.80
2022-08-03T09:16:09.106Z,14.15
2022-08-03T09:18:35.829Z,13.52
2022-08-03T09:21:34.891Z,14.95
2022-08-03T09:24:06.325Z,15.27
2022-08-03T09:26:37.108Z,10.77
2022-08-03T09:29:09.342Z,11.55
2022-08-03T09:31:45.087Z,11.52
2022-08-03T09:34:15.066Z,11.90
2022-08-03T09:36:47.586Z,13.80
2022-08-03T09:39:37.534Z,9.65
2022-08-03T09:42:19.104Z,12.73
2022-08-03T09:44:51.717Z,16.23
2022-08-03T09:47:29.687Z,9.52
2022-08-03T09:49:59.029Z,11.30
2022-08-03T09:52:48.341Z,14.00
2022-08-03T09:56:30.958Z,15.20
2022-08-03T09:58:11.020Z,12.57
2022-08-03T10:01:04.156Z,11.88
2022-08-03T10:03:36.253Z,12.90
2022-08-03T10:06:22.771Z,12.02
2022-08-03T10:09:15.701Z,11.88
2022-08-03T10:11:43.749Z,16.45
2022-08-03T10:14:18.809Z,12.57
2022-08-03T10:16:46.800Z,13.30
2022-08-03T10:19:15.202Z,12.25
2022-08-03T10:21:55.590Z,9.82
2022-08-03T10:24:26.863Z,14.63
2022-08-03T10:27:01.227Z,17.98
2022-08-03T10:29:29.042Z,12.23
2022-08-03T10:31:59.013Z,14.43
2022-08-03T10:34:35.232Z,10.18
2022-08-03T10:37:08.393Z,10.32
2022-08-03T10:39:36.192Z,12.70
2022-08-03T10:42:03.951Z,11.70
2022-08-03T10:44:40.115Z,15.30
2022-08-03T10:47:09.641Z,11.65
2022-08-03T10:49:36.612Z,12.55
2022-08-03T10:52:12.905Z,10.38
2022-08-03T10:55:07.323Z,9.77
2022-08-03T10:57:49.704Z,11.50
2022-08-03T11:00:24.602Z,13.20
2022-08-03T11:03:16.742Z,11.55
2022-08-03T11:05:49.150Z,10.93
2022-08-03T11:08:24.031Z,10.90
2022-08-03T11:10:53.654Z,11.88
2022-08-03T11:13:23.436Z,9.38
2022-08-03T11:15:53.480Z,12.65
2022-08-03T11:18:27.202Z,12.25
2022-08-03T11:20:56.496Z,10.10
2022-08-03T11:24:04.746Z,9.40
2022-08-03T11:26:34.014Z,13.05
2022-08-03T11:29:30.517Z,11.18
2022-08-03T11:31:57.747Z,9.15
2022-08-03T11:34:24.936Z,9.97
2022-08-03T11:37:21.836Z,12.18
2022-08-03T11:39:51.537Z,10.90
2022-08-03T11:42:24.340Z,12.18
2022-08-03T11:44:52.692Z,12.52
2022-08-03T11:47:21.686Z,9.27
2022-08-03T11:49:50.325Z,12.88
2022-08-03T11:52:17.764Z,10.40
2022-08-03T11:54:44.750Z,11.02
2022-08-03T11:57:11.746Z,10.05
2022-08-03T11:59:38.779Z,9.80
2022-08-03T12:02:09.280Z,9.68
2022-08-03T12:04:58.229Z,11.85
2022-08-03T12:08:04.101Z,8.80
2022-08-03T12:10:15.089Z,16.30
2022-08-03T12:12:46.282Z,10.33
2022-08-03T12:15:13.198Z,9.70
2022-08-03T12:17:41.487Z,11.43
2022-08-03T12:20:10.343Z,10.57
2022-08-03T12:22:39.452Z,9.93
2022-08-03T12:25:08.155Z,9.17
2022-08-03T12:27:35.795Z,6.93
2022-08-03T12:30:04.646Z,7.50
2022-08-03T12:32:31.619Z,7.63
2022-08-03T12:35:01.546Z,7.95
2022-08-03T12:37:29.766Z,10.70
2022-08-03T12:40:09.453Z,9.27
2022-08-03T12:42:38.691Z,11.75
2022-08-03T12:45:24.906Z,9.80
2022-08-03T12:48:00.413Z,6.60
2022-08-03T12:50:28.388Z,6.63
2022-08-03T12:52:56.007Z,7.50
2022-08-03T12:55:23.301Z,5.07
2022-08-03T12:57:49.968Z,6.78
2022-08-03T13:00:29.024Z,9.27
2022-08-03T13:03:39.363Z,8.63
2022-08-03T13:05:50.950Z,8.57
2022-08-03T13:08:19.041Z,8.65
2022-08-03T13:10:46.153Z,7.95
2022-08-03T13:13:12.733Z,8.30
2022-08-03T13:15:48.008Z,10.20
2022-08-03T13:18:17.269Z,9.23
2022-08-03T13:20:47.987Z,5.85
2022-08-03T13:23:22.304Z,8.35
2022-08-03T13:25:55.878Z,8.68
2022-08-03T13:28:23.373Z,8.23
2022-08-03T13:30:50.080Z,6.73
2022-08-03T13:33:16.732Z,9.80
2022-08-03T13:35:43.272Z,9.93
2022-08-03T13:38:10.233Z,9.15
2022-08-03T13:40:41.692Z,9.95
2022-08-03T13:43:08.636Z,8.17
2022-08-03T13:45:35.814Z,8.85
2022-08-03T13:48:02.446Z,11.15
2022-08-03T13:50:30.033Z,11.80
2022-08-03T13:52:59.491Z,8.63
2022-08-03T13:55:26.057Z,7.63
2022-08-03T13:58:04.603Z,8.13
2022-08-03T14:00:33.811Z,7.78
2022-08-03T14:03:17.360Z,9.02
2022-08-03T14:05:44.123Z,9.50
2022-08-03T14:08:13.658Z,9.57
2022-08-03T14:10:46.282Z,20.60
2022-08-03T14:13:16.782Z,12.77
2022-08-03T14:15:50.067Z,11.38
2022-08-03T14:18:28.984Z,11.73
2022-08-03T14:21:05.995Z,9.83
2022-08-03T14:23:33.636Z,9.25
2022-08-03T14:26:00.278Z,10.98
2022-08-03T14:28:27.147Z,12.98
2022-08-03T14:30:55.982Z,12.55
2022-08-03T14:33:23.676Z,12.67
2022-08-03T14:35:51.724Z,9.63
2022-08-03T14:38:18.623Z,8.82
2022-08-03T14:40:45.841Z,11.48
2022-08-03T14:43:18.158Z,10.45
2022-08-03T14:45:44.975Z,10.13
2022-08-03T14:50:34.340Z,7.53
2022-08-03T14:51:00.821Z,9.07
2022-08-03T14:53:28.933Z,9.98
2022-08-03T14:55:55.883Z,7.85
2022-08-03T14:58:25.301Z,9.00
2022-08-03T15:00:53.396Z,11.15
2022-08-03T15:03:25.313Z,11.55
2022-08-03T15:05:53.809Z,9.70
2022-08-03T15:08:21.782Z,9.07
2022-08-03T15:10:49.392Z,9.40
2022-08-03T15:13:17.191Z,10.93
2022-08-03T15:15:43.953Z,12.40
2022-08-03T15:18:10.901Z,7.30
2022-08-03T15:20:46.678Z,10.02
2022-08-03T15:23:15.388Z,8.90
2022-08-03T15:26:28.009Z,8.75
2022-08-03T15:28:42.400Z,8.73
2022-08-03T15:31:09.795Z,8.80
2022-08-03T15:33:37.267Z,11.23
2022-08-03T15:36:04.649Z,8.20
2022-08-03T15:38:31.270Z,9.37
2022-08-03T15:40:59.096Z,8.43
2022-08-03T15:43:25.794Z,9.65
2022-08-03T15:46:12.853Z,9.68
2022-08-03T15:48:40.125Z,7.07
2022-08-03T15:51:07.446Z,10.13
2022-08-03T15:53:34.483Z,8.25
2022-08-03T15:56:04.231Z,7.63
2022-08-03T15:59:04.957Z,11.40
2022-08-03T16:01:21.302Z,7.95
2022-08-03T16:03:48.287Z,8.00
2022-08-03T16:06:14.983Z,9.70
2022-08-03T16:08:41.594Z,9.48
2022-08-03T16:11:08.325Z,7.60
2022-08-03T16:14:12.448Z,8.02
2022-08-03T16:16:21.420Z,7.70
2022-08-03T16:18:47.974Z,6.75
2022-08-03T16:21:19.479Z,8.90
2022-08-03T16:23:48.645Z,9.25
2022-08-03T16:26:15.270Z,8.75
2022-08-03T16:28:42.016Z,10.87
2022-08-03T16:31:09.205Z,9.65
2022-08-03T16:33:36.207Z,8.15
2022-08-03T16:36:02.956Z,10.15
2022-08-03T16:38:30.545Z,9.73
2022-08-03T16:40:57.216Z,7.40
2022-08-03T16:43:24.688Z,6.32
2022-08-03T16:45:52.047Z,9.07
2022-08-03T16:48:19.142Z,9.90
2022-08-03T16:50:46.104Z,7.45
2022-08-03T16:53:17.091Z,8.83
2022-08-03T16:55:53.378Z,7.60
2022-08-03T16:58:34.432Z,9.10
2022-08-03T17:01:22.299Z,5.53
2022-08-03T17:04:02.477Z,10.02
2022-08-03T17:06:36.792Z,10.30
2022-08-03T17:09:19.022Z,10.70
2022-08-03T17:11:50.118Z,7.35
2022-08-03T17:14:21.799Z,7.30
2022-08-03T17:16:52.772Z,7.05
2022-08-03T17:19:23.037Z,8.50
2022-08-03T17:22:01.386Z,6.50
2022-08-03T17:24:41.320Z,11.35
2022-08-03T17:27:23.124Z,9.57
2022-08-03T17:30:07.692Z,7.50
2022-08-03T17:32:42.213Z,7.13
2022-08-03T17:35:10.883Z,8.02
2022-08-03T17:37:58.693Z,10.43
2022-08-03T17:40:24.737Z,8.77
2022-08-03T17:42:52.530Z,9.05
2022-08-03T17:45:20.357Z,7.07
2022-08-03T17:47:57.758Z,8.27
2022-08-03T17:50:40.236Z,9.98
2022-08-03T17:53:15.199Z,8.75
2022-08-03T17:56:42.371Z,7.30
2022-08-03T17:59:52.437Z,7.53
2022-08-03T18:03:01.149Z,9.68
2022-08-03T18:06:12.540Z,8.15
2022-08-03T18:08:27.550Z,6.65
2022-08-03T18:11:14.899Z,8.18
2022-08-03T18:13:58.180Z,7.10
2022-08-03T18:16:33.445Z,6.28
2022-08-03T18:19:09.293Z,8.02
2022-08-03T18:22:04.059Z,6.28
2022-08-03T18:24:28.261Z,9.77
2022-08-03T18:27:03.220Z,7.30
2022-08-03T18:29:30.884Z,6.15
2022-08-03T18:32:03.881Z,8.13
2022-08-03T18:34:34.532Z,7.55
2022-08-03T18:37:04.286Z,6.07
2022-08-03T18:39:49.589Z,7.97
2022-08-03T18:42:19.363Z,8.30
2022-08-03T18:44:53.997Z,11.70
2022-08-03T18:47:50.841Z,5.43
2022-08-03T18:50:28.467Z,8.00
2022-08-03T18:53:16.442Z,8.90
2022-08-03T18:56:02.391Z,6.25
2022-08-03T18:58:48.474Z,8.18
2022-08-03T19:02:01.069Z,6.68
2022-08-03T19:04:31.063Z,6.78
2022-08-03T19:07:04.093Z,5.33
2022-08-03T19:09:40.539Z,7.05
2022-08-03T19:12:32.364Z,8.07
2022-08-03T19:15:12.922Z,5.07
2022-08-03T19:17:53.218Z,6.70
2022-08-03T19:20:34.832Z,7.63
2022-08-03T19:23:01.899Z,7.07
2022-08-03T19:25:34.876Z,6.85
2022-08-03T19:28:06.170Z,7.47
2022-08-03T19:30:46.427Z,7.55
2022-08-03T19:33:20.945Z,6.17
2022-08-03T19:38:37.409Z,7.38
2022-08-03T19:41:09.911Z,6.03
2022-08-03T19:43:52.480Z,5.05
2022-08-03T19:46:22.245Z,6.20
2022-08-03T19:49:15.253Z,7.53
2022-08-03T19:51:58.495Z,8.20
2022-08-03T19:57:28.740Z,7.90
2022-08-03T19:59:57.169Z,8.93
2022-08-03T20:02:26.526Z,6.30
2022-08-03T20:04:59.970Z,7.72
2022-08-03T20:07:29.135Z,8.10
2022-08-03T20:09:57.320Z,7.90
2022-08-03T20:12:28.998Z,9.13
2022-08-03T20:14:57.757Z,5.47
2022-08-03T20:17:54.297Z,6.88
2022-08-03T20:20:12.116Z,8.40
2022-08-03T20:22:46.076Z,8.55
2022-08-03T20:25:16.362Z,6.10
2022-08-03T20:28:07.185Z,5.57
2022-08-03T20:30:42.505Z,5.47
2022-08-03T20:33:09.960Z,6.13
2022-08-03T20:35:36.750Z,6.40
2022-08-03T20:38:03.959Z,6.10
2022-08-03T20:40:31.563Z,5.97
2022-08-03T20:42:59.795Z,7.07
2022-08-03T20:45:58.332Z,7.32
2022-08-03T20:48:17.582Z,5.78
2022-08-03T20:50:49.069Z,7.03
2022-08-03T20:53:19.933Z,9.32
2022-08-03T20:56:04.279Z,7.30
2022-08-03T20:58:31.108Z,9.45
2022-08-03T21:00:58.255Z,7.50
2022-08-03T21:03:24.936Z,7.23
2022-08-03T21:06:11.748Z,9.27
2022-08-03T21:08:46.768Z,7.25
2022-08-03T21:11:18.266Z,7.72
2022-08-03T21:13:02.506Z,7.32
2022-08-03T21:13:10.224Z,8.25
2022-08-03T21:14:06.094Z,6.72
2022-08-03T21:16:33.902Z,25.53
2022-08-03T21:19:03.577Z,7.60
2022-08-03T21:21:32.319Z,5.90
2022-08-03T21:24:00.355Z,6.20
2022-08-03T21:26:27.510Z,7.13
2022-08-03T21:28:56.012Z,7.63
2022-08-03T21:31:25.472Z,6.85
2022-08-03T21:33:57.630Z,6.30
2022-08-03T21:36:27.627Z,6.70
2022-08-03T21:38:56.845Z,6.82
2022-08-03T21:41:25.997Z,7.37
2022-08-03T21:43:52.574Z,7.70
2022-08-03T21:46:20.076Z,7.68
2022-08-03T21:48:53.208Z,6.68
2022-08-03T21:51:24.500Z,7.03
2022-08-03T21:54:02.806Z,7.60
2022-08-03T21:56:36.332Z,5.55
2022-08-03T21:59:07.803Z,7.55
2022-08-03T22:01:36.737Z,6.13
2022-08-03T22:04:06.975Z,5.80
2022-08-03T22:06:33.875Z,7.67
2022-08-03T22:09:01.171Z,10.63
2022-08-03T22:11:27.941Z,6.75
2022-08-03T22:13:54.585Z,7.50
2022-08-03T22:16:21.618Z,6.90
2022-08-03T22:18:48.155Z,7.13
2022-08-03T22:21:16.802Z,7.63
2022-08-03T22:23:58.038Z,7.15
2022-08-03T22:26:34.621Z,6.90
2022-08-03T22:29:07.320Z,9.57
2022-08-03T22:31:58.873Z,6.17
2022-08-03T22:34:26.297Z,7.20
2022-08-03T22:36:56.556Z,7.70
2022-08-03T22:39:28.747Z,9.23
2022-08-03T22:41:58.030Z,7.03
2022-08-03T22:44:26.320Z,8.70
2022-08-03T22:46:53.301Z,6.88
2022-08-03T22:49:20.714Z,5.32
2022-08-03T22:51:47.544Z,6.30
2022-08-03T22:54:14.837Z,6.70
2022-08-03T22:56:42.037Z,5.60
2022-08-03T22:59:41.408Z,7.80
2022-08-03T23:02:20.517Z,7.10
2022-08-03T23:04:52.091Z,6.10
2022-08-03T23:07:32.719Z,7.82
2022-08-03T23:10:01.007Z,7.50
2022-08-03T23:12:30.364Z,9.13
2022-08-03T23:15:02.214Z,7.03
2022-08-03T23:17:31.518Z,7.15
2022-08-03T23:20:07.579Z,6.65
2022-08-03T23:22:38.316Z,7.63
2022-08-03T23:25:10.352Z,8.15
2022-08-03T23:27:41.209Z,9.27
2022-08-03T23:30:08.747Z,11.40
2022-08-03T23:32:35.775Z,8.77
2022-08-03T23:35:24.635Z,8.40
2022-08-03T23:38:22.716Z,7.13
2022-08-03T23:40:51.306Z,6.50
2022-08-03T23:43:44.818Z,8.25
2022-08-03T23:46:07.441Z,8.13
2022-08-03T23:48:34.556Z,7.80
2022-08-03T23:51:09.753Z,6.10
2022-08-03T23:53:51.411Z,7.30
2022-08-03T23:56:45.561Z,7.47
2022-08-03T23:59:39.490Z,6.80
